createdAt,value
2017-11-01T00:00:23.436Z,0
2017-11-01T00:01:03.999Z,0
2017-11-01T00:01:45.137Z,0
2017-11-01T00:02:25.813Z,0
2017-11-01T00:03:06.561Z,0
2017-11-01T00:03:47.062Z,0
2017-11-01T00:04:27.885Z,0
2017-11-01T00:05:08.584Z,0
2017-11-01T00:05:49.991Z,0
2017-11-01T00:06:31.582Z,0
2017-11-01T00:07:11.930Z,0
2017-11-01T00:07:52.374Z,0
2017-11-01T00:08:33.114Z,0
2017-11-01T00:09:14.188Z,0
2017-11-01T00:09:56.924Z,0
2017-11-01T00:10:39.575Z,0
2017-11-01T00:11:22.577Z,0
2017-11-01T00:12:05.338Z,0
2017-11-01T00:12:47.887Z,0
2017-11-01T00:13:29.483Z,0
2017-11-01T00:14:10.407Z,0
2017-11-01T00:14:51.130Z,0
2017-11-01T00:15:31.928Z,0
2017-11-01T00:16:13.290Z,0
2017-11-01T00:16:53.536Z,0
2017-11-01T00:17:34.120Z,0
2017-11-01T00:18:15.165Z,0
2017-11-01T00:18:55.519Z,0
2017-11-01T00:19:37.117Z,0
2017-11-01T00:20:17.727Z,0
2017-11-01T00:20:58.430Z,0
2017-11-01T00:21:38.826Z,0
2017-11-01T00:22:19.280Z,0
2017-11-01T00:22:59.860Z,0
2017-11-01T00:25:43.130Z,0
2017-11-01T00:26:36.416Z,0
2017-11-01T00:27:28.907Z,0
2017-11-01T00:28:21.148Z,0
2017-11-01T00:29:13.382Z,0
2017-11-01T00:30:06.629Z,0
2017-11-01T00:30:59.668Z,0
2017-11-01T00:31:51.947Z,0
2017-11-01T00:32:44.376Z,0
2017-11-01T00:33:36.752Z,0
2017-11-01T00:34:29.261Z,0
2017-11-01T00:35:21.445Z,0
2017-11-01T00:36:13.467Z,0
2017-11-01T00:37:06.073Z,0
2017-11-01T00:37:59.095Z,0
2017-11-01T00:38:51.522Z,0
2017-11-01T00:39:46.672Z,0
2017-11-01T00:40:39.517Z,0
2017-11-01T00:41:33.290Z,0
2017-11-01T00:42:27.129Z,0
2017-11-01T00:43:20.040Z,0
2017-11-01T00:44:12.607Z,0
2017-11-01T00:45:06.880Z,0
2017-11-01T00:46:02.204Z,0
2017-11-01T00:46:54.818Z,0
2017-11-01T00:47:47.245Z,0
2017-11-01T00:48:39.682Z,0
2017-11-01T00:49:33.217Z,0
2017-11-01T00:50:28.175Z,0
2017-11-01T00:51:21.032Z,0
2017-11-01T00:52:14.513Z,0
2017-11-01T00:53:09.818Z,0
2017-11-01T00:54:02.013Z,0
2017-11-01T00:54:55.061Z,0
2017-11-01T00:55:47.760Z,0
2017-11-01T00:56:40.416Z,0
2017-11-01T00:57:32.517Z,0
2017-11-01T00:58:27.959Z,0
2017-11-01T00:59:19.987Z,0
2017-11-01T01:00:14.761Z,0
2017-11-01T01:01:07.020Z,0
2017-11-01T01:01:59.513Z,0
2017-11-01T01:02:52.497Z,0
2017-11-01T01:03:46.369Z,0
2017-11-01T01:04:39.070Z,0
2017-11-01T01:05:31.986Z,0
2017-11-01T01:06:23.700Z,0
2017-11-01T01:07:11.871Z,0
2017-11-01T01:09:40.116Z,0
2017-11-01T01:10:33.324Z,0
2017-11-01T01:11:26.647Z,0
2017-11-01T01:12:19.802Z,0
2017-11-01T01:13:12.843Z,0
2017-11-01T01:14:05.674Z,0
2017-11-01T01:14:59.492Z,0
2017-11-01T01:15:52.960Z,0
2017-11-01T01:16:46.851Z,0
2017-11-01T01:17:39.285Z,0
2017-11-01T01:18:31.721Z,0
2017-11-01T01:19:24.112Z,0
2017-11-01T01:20:17.965Z,0
2017-11-01T01:22:47.230Z,0
2017-11-01T01:23:39.745Z,0
2017-11-01T01:24:32.089Z,0
2017-11-01T01:25:24.091Z,0
2017-11-01T01:26:17.282Z,0
2017-11-01T01:27:09.839Z,0
2017-11-01T01:28:02.408Z,0
2017-11-01T01:28:55.202Z,0
2017-11-01T01:29:48.161Z,0
2017-11-01T01:30:40.336Z,0
2017-11-01T01:31:33.381Z,0
2017-11-01T01:32:26.221Z,0
2017-11-01T01:33:18.293Z,0
2017-11-01T01:34:11.434Z,0
2017-11-01T01:35:04.165Z,0
2017-11-01T01:35:54.760Z,0
2017-11-01T01:36:46.988Z,0
2017-11-01T01:37:39.453Z,0
2017-11-01T01:38:32.068Z,0
2017-11-01T01:39:24.168Z,0
2017-11-01T01:40:15.711Z,0
2017-11-01T01:41:06.259Z,0
2017-11-01T01:41:46.204Z,0
2017-11-01T01:42:26.794Z,0
2017-11-01T01:43:07.110Z,0
2017-11-01T01:43:47.463Z,0
2017-11-01T01:44:27.962Z,0
2017-11-01T01:45:08.376Z,0
2017-11-01T01:45:48.783Z,0
2017-11-01T01:46:29.225Z,0
2017-11-01T01:47:09.617Z,0
2017-11-01T01:47:50.157Z,0
2017-11-01T01:48:30.634Z,0
2017-11-01T01:49:10.981Z,0
2017-11-01T01:49:51.452Z,0
2017-11-01T01:50:32.619Z,0
2017-11-01T01:51:12.843Z,0
2017-11-01T01:51:54.455Z,0
2017-11-01T01:52:34.841Z,0
2017-11-01T01:53:15.260Z,0
2017-11-01T01:53:55.677Z,0
2017-11-01T01:54:36.150Z,0
2017-11-01T01:55:16.503Z,0
2017-11-01T01:55:56.976Z,0
2017-11-01T01:56:37.370Z,0
2017-11-01T01:57:26.686Z,0
2017-11-01T01:58:07.081Z,0
2017-11-01T01:58:48.876Z,0
2017-11-01T01:59:32.500Z,0
2017-11-01T02:00:13.029Z,0
2017-11-01T02:00:53.689Z,0
2017-11-01T02:01:34.017Z,0
2017-11-01T02:02:14.450Z,0
2017-11-01T02:02:54.971Z,0
2017-11-01T02:03:35.328Z,0
2017-11-01T02:04:16.509Z,0
2017-11-01T02:04:56.885Z,0
2017-11-01T02:05:37.452Z,0
2017-11-01T02:06:18.471Z,0
2017-11-01T02:07:00.578Z,0
2017-11-01T02:07:40.989Z,0
2017-11-01T02:08:21.367Z,0
2017-11-01T02:09:01.863Z,0
2017-11-01T02:09:42.763Z,0
2017-11-01T02:10:23.189Z,0
2017-11-01T02:11:03.608Z,0
2017-11-01T02:11:43.966Z,0
2017-11-01T02:12:24.658Z,0
2017-11-01T02:13:05.160Z,0
2017-11-01T02:13:47.986Z,0
2017-11-01T02:14:28.675Z,0
2017-11-01T02:15:08.875Z,0
2017-11-01T02:15:49.397Z,0
2017-11-01T02:16:30.023Z,0
2017-11-01T02:17:10.400Z,0
2017-11-01T02:17:50.823Z,0
2017-11-01T02:18:31.274Z,0
2017-11-01T02:19:11.724Z,0
2017-11-01T02:19:52.089Z,0
2017-11-01T02:20:32.533Z,0
2017-11-01T02:21:12.980Z,0
2017-11-01T02:21:53.337Z,0
2017-11-01T02:22:33.740Z,0
2017-11-01T02:23:14.355Z,0
2017-11-01T02:23:55.094Z,0
2017-11-01T02:24:35.608Z,0
2017-11-01T02:25:16.169Z,0
2017-11-01T02:25:56.703Z,0
2017-11-01T02:26:37.115Z,0
2017-11-01T02:27:17.753Z,0
2017-11-01T02:27:58.111Z,0
2017-11-01T02:28:38.652Z,0
2017-11-01T02:29:19.406Z,0
2017-11-01T02:29:59.808Z,0
2017-11-01T02:30:40.206Z,0
2017-11-01T02:31:20.830Z,0
2017-11-01T02:32:01.173Z,0
2017-11-01T02:32:41.782Z,0
2017-11-01T02:33:22.053Z,0
2017-11-01T02:34:02.348Z,0
2017-11-01T02:34:42.756Z,0
2017-11-01T02:35:23.225Z,0
2017-11-01T02:36:03.658Z,0
2017-11-01T02:36:44.131Z,0
2017-11-01T02:37:28.377Z,0
2017-11-01T02:38:09.056Z,0
2017-11-01T02:38:49.342Z,0
2017-11-01T02:39:29.744Z,0
2017-11-01T02:40:10.144Z,0
2017-11-01T02:40:50.705Z,0
2017-11-01T02:41:31.112Z,0
2017-11-01T02:42:12.293Z,0
2017-11-01T02:42:52.670Z,0
2017-11-01T02:43:33.117Z,0
2017-11-01T02:44:13.611Z,0
2017-11-01T02:44:53.967Z,0
2017-11-01T02:45:34.433Z,0
2017-11-01T02:46:14.881Z,0
2017-11-01T02:46:55.515Z,0
2017-11-01T02:47:35.928Z,0
2017-11-01T02:48:17.194Z,0
2017-11-01T02:48:57.677Z,0
2017-11-01T02:49:38.321Z,0
2017-11-01T02:50:18.826Z,0
2017-11-01T02:50:59.296Z,0
2017-11-01T02:51:40.004Z,0
2017-11-01T02:52:20.232Z,0
2017-11-01T02:53:00.708Z,0
2017-11-01T02:53:41.901Z,0
2017-11-01T02:54:23.832Z,0
2017-11-01T02:55:04.777Z,0
2017-11-01T02:55:45.604Z,0
2017-11-01T02:56:26.015Z,0
2017-11-01T02:57:06.404Z,0
2017-11-01T02:57:46.819Z,0
2017-11-01T02:58:27.239Z,0
2017-11-01T02:59:07.636Z,0
2017-11-01T02:59:48.273Z,0
2017-11-01T03:00:28.732Z,0
2017-11-01T03:01:09.126Z,0
2017-11-01T03:01:49.514Z,0
2017-11-01T03:02:29.852Z,0
2017-11-01T03:04:52.034Z,0
2017-11-01T03:05:32.460Z,0
2017-11-01T03:06:12.911Z,0
2017-11-01T03:06:53.317Z,0
2017-11-01T03:07:33.716Z,0
2017-11-01T03:08:14.259Z,0
2017-11-01T03:08:54.721Z,0
2017-11-01T03:09:35.165Z,0
2017-11-01T03:10:15.592Z,0
2017-11-01T03:10:55.984Z,0
2017-11-01T03:11:36.410Z,0
2017-11-01T03:12:16.884Z,0
2017-11-01T03:12:57.240Z,0
2017-11-01T03:13:37.661Z,0
2017-11-01T03:14:18.135Z,0
2017-11-01T03:14:58.624Z,0
2017-11-01T03:15:39.204Z,0
2017-11-01T03:16:19.730Z,0
2017-11-01T03:17:00.209Z,0
2017-11-01T03:17:40.641Z,0
2017-11-01T03:18:21.033Z,0
2017-11-01T03:19:01.599Z,0
2017-11-01T03:19:42.123Z,0
2017-11-01T03:20:22.675Z,0
2017-11-01T03:21:02.992Z,0
2017-11-01T03:21:43.442Z,0
2017-11-01T03:22:23.977Z,0
2017-11-01T03:23:04.266Z,0
2017-11-01T03:23:44.736Z,0
2017-11-01T03:24:25.136Z,0
2017-11-01T03:25:05.831Z,0
2017-11-01T03:25:45.956Z,0
2017-11-01T03:26:26.403Z,0
2017-11-01T03:27:06.805Z,0
2017-11-01T03:27:47.202Z,0
2017-11-01T03:28:27.723Z,0
2017-11-01T03:29:08.885Z,0
2017-11-01T03:29:48.866Z,0
2017-11-01T03:30:29.379Z,0
2017-11-01T03:31:09.857Z,0
2017-11-01T03:31:51.238Z,0
2017-11-01T03:32:31.689Z,0
2017-11-01T03:33:12.127Z,0
2017-11-01T03:33:53.571Z,0
2017-11-01T03:34:33.116Z,0
2017-11-01T03:35:13.668Z,0
2017-11-01T03:35:54.141Z,0
2017-11-01T03:36:34.661Z,0
2017-11-01T03:37:15.179Z,0
2017-11-01T03:37:55.638Z,0
2017-11-01T03:38:36.096Z,0
2017-11-01T03:39:16.559Z,0
2017-11-01T03:39:56.923Z,0
2017-11-01T03:40:37.352Z,0
2017-11-01T03:41:17.780Z,0
2017-11-01T03:41:58.239Z,0
2017-11-01T03:42:38.748Z,0
2017-11-01T03:43:19.155Z,0
2017-11-01T03:43:59.569Z,0
2017-11-01T03:44:39.936Z,0
2017-11-01T03:45:20.476Z,0
2017-11-01T03:46:00.860Z,0
2017-11-01T03:46:41.352Z,0
2017-11-01T03:47:21.781Z,0
2017-11-01T03:48:02.291Z,0
2017-11-01T03:48:42.914Z,0
2017-11-01T03:49:23.256Z,0
2017-11-01T03:50:03.720Z,0
2017-11-01T03:50:44.163Z,0
2017-11-01T03:51:24.520Z,0
2017-11-01T03:52:04.953Z,0
2017-11-01T03:52:45.510Z,0
2017-11-01T03:53:25.888Z,0
2017-11-01T03:54:06.308Z,0
2017-11-01T03:54:46.777Z,0
2017-11-01T03:55:27.224Z,0
2017-11-01T03:56:07.760Z,0
2017-11-01T03:56:48.099Z,0
2017-11-01T03:57:28.660Z,0
2017-11-01T03:58:09.127Z,0
2017-11-01T03:58:49.542Z,0
2017-11-01T03:59:29.973Z,0
2017-11-01T04:00:10.316Z,0
2017-11-01T04:00:50.834Z,0
2017-11-01T04:01:31.398Z,0
2017-11-01T04:41:54.330Z,0
2017-11-01T04:42:47.773Z,0
2017-11-01T04:43:40.268Z,0
2017-11-01T04:44:33.551Z,0
2017-11-01T04:45:25.840Z,0
2017-11-01T04:46:18.271Z,0
2017-11-01T04:47:11.302Z,0
2017-11-01T04:48:04.676Z,0
2017-11-01T04:48:57.788Z,0
2017-11-01T04:49:50.355Z,0
2017-11-01T04:50:43.172Z,0
2017-11-01T04:51:35.585Z,0
2017-11-01T04:52:29.306Z,0
2017-11-01T04:53:22.212Z,0
2017-11-01T04:54:14.626Z,0
2017-11-01T04:55:07.059Z,0
2017-11-01T04:56:00.430Z,0
2017-11-01T04:56:52.818Z,0
2017-11-01T04:57:45.092Z,0
2017-11-01T04:58:37.391Z,0
2017-11-01T04:59:29.466Z,0
2017-11-01T05:00:22.336Z,0
2017-11-01T05:01:14.724Z,0
2017-11-01T05:02:08.356Z,0
2017-11-01T05:03:00.238Z,0
2017-11-01T05:03:52.652Z,0
2017-11-01T05:04:45.772Z,0
2017-11-01T05:05:39.456Z,0
2017-11-01T05:06:32.150Z,0
2017-11-01T05:07:25.363Z,0
2017-11-01T05:08:17.776Z,0
2017-11-01T05:09:09.696Z,0
2017-11-01T05:10:02.077Z,0
2017-11-01T05:10:54.435Z,0
2017-11-01T05:11:48.213Z,0
2017-11-01T05:12:40.448Z,0
2017-11-01T05:13:32.610Z,0
2017-11-01T05:14:26.772Z,0
2017-11-01T05:15:20.754Z,0
2017-11-01T05:16:13.213Z,0
2017-11-01T05:17:07.097Z,0
2017-11-01T05:18:00.162Z,0
2017-11-01T05:18:52.640Z,0
2017-11-01T05:19:45.161Z,0
2017-11-01T05:20:37.645Z,0
2017-11-01T05:21:30.698Z,0
2017-11-01T05:22:22.857Z,0
2017-11-01T05:23:15.439Z,0
2017-11-01T05:24:07.740Z,0
2017-11-01T05:25:00.117Z,0
2017-11-01T05:25:52.808Z,0
2017-11-01T05:26:46.230Z,0
2017-11-01T05:27:38.514Z,0
2017-11-01T05:28:30.610Z,0
2017-11-01T05:29:22.873Z,0
2017-11-01T05:30:15.109Z,0
2017-11-01T05:31:07.886Z,0
2017-11-01T05:32:00.631Z,0
2017-11-01T05:32:53.026Z,0
2017-11-01T05:33:45.679Z,0
2017-11-01T05:34:38.256Z,0
2017-11-01T05:35:31.168Z,0
2017-11-01T05:36:24.078Z,0
2017-11-01T05:37:17.789Z,0
2017-11-01T05:38:09.851Z,0
2017-11-01T05:39:03.399Z,0
2017-11-01T05:39:55.667Z,0
2017-11-01T05:40:48.782Z,0
2017-11-01T05:41:42.467Z,0
2017-11-01T05:42:34.719Z,0
2017-11-01T05:43:28.330Z,0
2017-11-01T05:44:20.809Z,0
2017-11-01T05:45:14.103Z,0
2017-11-01T05:46:05.809Z,0
2017-11-01T05:46:58.163Z,0
2017-11-01T05:47:52.334Z,0
2017-11-01T05:48:45.133Z,0
2017-11-01T05:49:37.072Z,0
2017-11-01T05:50:29.564Z,0
2017-11-01T05:51:22.272Z,0
2017-11-01T05:52:14.656Z,0
2017-11-01T05:53:07.728Z,0
2017-11-01T05:54:01.643Z,0
2017-11-01T05:54:55.612Z,0
2017-11-01T05:55:47.822Z,0
2017-11-01T05:56:41.660Z,0
2017-11-01T05:57:34.285Z,0
2017-11-01T05:58:26.697Z,0
2017-11-01T05:59:20.446Z,0
2017-11-01T06:00:12.695Z,0
2017-11-01T06:01:05.195Z,0
2017-11-01T06:01:59.462Z,0
2017-11-01T06:02:51.964Z,0
2017-11-01T06:03:44.075Z,0
2017-11-01T06:04:38.124Z,0
2017-11-01T06:05:30.629Z,0
2017-11-01T06:06:23.232Z,0
2017-11-01T06:07:16.328Z,0
2017-11-01T06:08:08.914Z,0
2017-11-01T06:09:01.488Z,0
2017-11-01T06:09:53.965Z,0
2017-11-01T06:10:46.756Z,0
2017-11-01T06:11:39.716Z,0
2017-11-01T06:12:32.279Z,0
2017-11-01T06:13:25.192Z,0
2017-11-01T06:14:17.307Z,0
2017-11-01T06:15:09.639Z,0
2017-11-01T06:16:02.176Z,0
2017-11-01T06:16:54.912Z,0
2017-11-01T06:17:47.092Z,0
2017-11-01T06:18:41.710Z,0
2017-11-01T06:19:34.231Z,0
2017-11-01T06:20:28.651Z,0
2017-11-01T06:21:21.710Z,0
2017-11-01T06:22:13.655Z,0
2017-11-01T06:23:05.660Z,0
2017-11-01T06:23:58.491Z,0
2017-11-01T06:24:51.391Z,0
2017-11-01T06:25:44.989Z,0
2017-11-01T06:26:37.222Z,0
2017-11-01T06:27:29.682Z,0
2017-11-01T06:28:21.872Z,0
2017-11-01T06:29:13.839Z,0
2017-11-01T06:30:05.694Z,0
2017-11-01T06:30:58.327Z,0
2017-11-01T06:31:50.918Z,0
2017-11-01T06:32:42.804Z,0
2017-11-01T06:33:35.849Z,0
2017-11-01T06:34:27.742Z,0
2017-11-01T06:35:21.525Z,0
2017-11-01T06:36:13.703Z,0
2017-11-01T06:37:06.333Z,0
2017-11-01T06:37:59.355Z,0
2017-11-01T06:38:51.688Z,0
2017-11-01T06:39:44.090Z,0
2017-11-01T06:40:36.611Z,0
2017-11-01T06:41:28.827Z,0
2017-11-01T06:42:20.760Z,0
2017-11-01T06:43:13.366Z,0
2017-11-01T06:44:05.113Z,0
2017-11-01T06:44:57.401Z,0
2017-11-01T06:45:50.202Z,0
2017-11-01T06:46:42.681Z,0
2017-11-01T06:47:35.158Z,0
2017-11-01T06:48:27.443Z,0
2017-11-01T06:49:07.563Z,0
2017-11-01T06:49:48.162Z,0
2017-11-01T06:50:28.618Z,0
2017-11-01T06:51:09.359Z,0
2017-11-01T06:51:49.651Z,0
2017-11-01T06:52:30.047Z,0
2017-11-01T06:53:10.424Z,0
2017-11-01T06:53:51.025Z,0
2017-11-01T06:54:31.410Z,0
2017-11-01T06:55:11.766Z,0
2017-11-01T06:55:52.296Z,0
2017-11-01T06:56:32.725Z,0
2017-11-01T06:57:13.190Z,0
2017-11-01T06:57:53.563Z,0
2017-11-01T06:58:34.069Z,0
2017-11-01T06:59:14.523Z,0
2017-11-01T06:59:55.046Z,0
2017-11-01T07:00:35.469Z,0
2017-11-01T07:01:15.921Z,0
2017-11-01T07:01:56.345Z,0
2017-11-01T07:02:36.736Z,0
2017-11-01T07:03:17.162Z,0
2017-11-01T07:03:57.541Z,0
2017-11-01T07:04:37.902Z,0
2017-11-01T07:05:18.307Z,0
2017-11-01T07:05:58.727Z,0
2017-11-01T07:06:39.125Z,0
2017-11-01T07:07:19.614Z,5
2017-11-01T07:08:00.036Z,5
2017-11-01T07:08:40.462Z,5
2017-11-01T07:09:20.924Z,5
2017-11-01T07:10:01.375Z,5
2017-11-01T07:10:41.735Z,5
2017-11-01T07:11:22.159Z,5
2017-11-01T07:12:02.569Z,5
2017-11-01T07:12:42.939Z,5
2017-11-01T07:13:23.423Z,5
2017-11-01T07:14:03.776Z,5
2017-11-01T07:14:44.165Z,5
2017-11-01T07:15:24.601Z,5
2017-11-01T07:16:05.055Z,5
2017-11-01T07:16:45.413Z,5
2017-11-01T07:17:25.933Z,5
2017-11-01T07:18:06.295Z,5
2017-11-01T07:18:46.722Z,5
2017-11-01T07:19:27.188Z,5
2017-11-01T07:20:07.496Z,5
2017-11-01T07:20:47.969Z,5
2017-11-01T07:21:28.432Z,5
2017-11-01T07:22:08.952Z,5
2017-11-01T07:22:49.341Z,5
2017-11-01T07:23:29.729Z,5
2017-11-01T07:24:10.260Z,5
2017-11-01T07:24:50.580Z,5
2017-11-01T07:25:30.999Z,5
2017-11-01T07:26:11.397Z,5
2017-11-01T07:26:51.792Z,5
2017-11-01T07:27:32.176Z,5
2017-11-01T07:28:12.658Z,10
2017-11-01T07:28:53.062Z,10
2017-11-01T07:29:33.494Z,10
2017-11-01T07:30:13.844Z,15
2017-11-01T07:30:54.261Z,15
2017-11-01T07:31:34.863Z,15
2017-11-01T07:32:15.432Z,15
2017-11-01T07:32:56.023Z,15
2017-11-01T07:33:36.459Z,15
2017-11-01T07:34:16.915Z,25
2017-11-01T07:34:57.310Z,25
2017-11-01T07:35:37.694Z,30
2017-11-01T07:36:18.130Z,30
2017-11-01T07:36:58.567Z,25
2017-11-01T07:37:38.953Z,30
2017-11-01T07:38:19.410Z,30
2017-11-01T07:39:00.001Z,35
2017-11-01T07:39:40.603Z,40
2017-11-01T07:40:21.037Z,40
2017-11-01T07:41:01.465Z,40
2017-11-01T07:41:41.859Z,45
2017-11-01T07:42:22.241Z,50
2017-11-01T07:43:02.810Z,45
2017-11-01T07:43:43.077Z,40
2017-11-01T07:44:23.482Z,40
2017-11-01T07:45:03.948Z,30
2017-11-01T07:45:44.323Z,30
2017-11-01T07:46:24.706Z,35
2017-11-01T07:47:05.096Z,35
2017-11-01T07:47:45.550Z,35
2017-11-01T07:48:26.191Z,35
2017-11-01T07:49:06.558Z,35
2017-11-01T07:49:47.049Z,30
2017-11-01T07:50:27.514Z,25
2017-11-01T07:51:07.886Z,25
2017-11-01T07:51:48.374Z,30
2017-11-01T07:52:28.897Z,30
2017-11-01T07:53:09.242Z,35
2017-11-01T07:53:49.794Z,35
2017-11-01T07:54:30.174Z,35
2017-11-01T07:55:10.547Z,35
2017-11-01T07:55:50.983Z,35
2017-11-01T07:56:40.699Z,35
2017-11-01T07:57:22.180Z,40
2017-11-01T07:58:02.654Z,45
2017-11-01T07:58:43.181Z,40
2017-11-01T07:59:23.574Z,50
2017-11-01T08:00:03.930Z,50
2017-11-01T08:00:44.471Z,45
2017-11-01T08:01:24.868Z,35
2017-11-01T08:02:05.411Z,35
2017-11-01T08:02:45.900Z,35
2017-11-01T08:03:26.235Z,35
2017-11-01T08:04:06.759Z,35
2017-11-01T08:04:47.168Z,35
2017-11-01T08:05:27.590Z,40
2017-11-01T08:06:08.028Z,40
2017-11-01T08:06:48.398Z,40
2017-11-01T08:07:28.938Z,40
2017-11-01T08:08:09.271Z,40
2017-11-01T08:08:50.245Z,40
2017-11-01T08:09:30.677Z,40
2017-11-01T08:10:11.783Z,40
2017-11-01T08:10:52.279Z,35
2017-11-01T08:11:32.626Z,40
2017-11-01T08:12:13.068Z,40
2017-11-01T08:12:53.476Z,45
2017-11-01T08:13:33.921Z,40
2017-11-01T08:14:14.313Z,40
2017-11-01T08:14:54.680Z,40
2017-11-01T08:17:25.446Z,45
2017-11-01T08:18:05.868Z,45
2017-11-01T08:18:46.347Z,45
2017-11-01T08:19:26.955Z,45
2017-11-01T08:20:07.689Z,45
2017-11-01T08:20:47.971Z,45
2017-11-01T08:21:28.516Z,45
2017-11-01T08:22:08.928Z,45
2017-11-01T08:22:49.354Z,45
2017-11-01T08:23:29.833Z,50
2017-11-01T08:24:10.223Z,50
2017-11-01T08:24:50.780Z,45
2017-11-01T08:25:31.325Z,50
2017-11-01T08:26:11.779Z,50
2017-11-01T08:26:52.198Z,50
2017-11-01T08:27:32.612Z,50
2017-11-01T08:28:13.020Z,50
2017-11-01T08:28:53.512Z,50
2017-11-01T08:29:33.961Z,50
2017-11-01T08:30:14.342Z,50
2017-11-01T08:30:54.690Z,50
2017-11-01T08:31:35.732Z,55
2017-11-01T08:32:16.379Z,55
2017-11-01T08:32:56.736Z,55
2017-11-01T08:33:37.216Z,55
2017-11-01T08:34:17.673Z,55
2017-11-01T08:34:58.158Z,55
2017-11-01T08:35:38.558Z,55
2017-11-01T08:36:19.047Z,55
2017-11-01T08:38:50.978Z,50
2017-11-01T08:39:43.976Z,45
2017-11-01T08:40:38.200Z,45
2017-11-01T08:41:32.266Z,50
2017-11-01T08:42:26.331Z,50
2017-11-01T08:43:18.942Z,50
2017-11-01T08:44:11.087Z,55
2017-11-01T08:45:04.316Z,55
2017-11-01T08:45:57.199Z,60
2017-11-01T08:46:50.602Z,65
2017-11-01T08:47:45.531Z,65
2017-11-01T08:48:38.107Z,65
2017-11-01T08:49:32.787Z,60
2017-11-01T08:50:25.720Z,60
2017-11-01T08:51:17.662Z,60
2017-11-01T08:52:11.117Z,60
2017-11-01T08:53:04.078Z,60
2017-11-01T08:53:58.015Z,60
2017-11-01T08:54:50.311Z,55
2017-11-01T08:55:42.357Z,55
2017-11-01T08:56:36.855Z,55
2017-11-01T08:57:29.321Z,60
2017-11-01T08:58:21.991Z,60
2017-11-01T08:59:14.918Z,55
2017-11-01T08:59:58.844Z,55
2017-11-01T09:00:39.257Z,60
2017-11-01T09:01:19.700Z,60
2017-11-01T09:02:00.130Z,60
2017-11-01T09:02:40.682Z,60
2017-11-01T09:03:21.167Z,60
2017-11-01T09:04:01.586Z,60
2017-11-01T09:04:42.052Z,65
2017-11-01T09:05:22.460Z,65
2017-11-01T09:06:02.812Z,65
2017-11-01T09:06:43.434Z,65
2017-11-01T09:07:23.964Z,65
2017-11-01T09:08:04.448Z,65
2017-11-01T09:08:44.884Z,65
2017-11-01T09:09:25.337Z,65
2017-11-01T09:10:05.731Z,65
2017-11-01T09:10:46.162Z,65
2017-11-01T09:11:26.571Z,65
2017-11-01T09:12:07.049Z,65
2017-11-01T09:12:47.445Z,65
2017-11-01T09:13:27.874Z,60
2017-11-01T09:14:08.411Z,60
2017-11-01T09:14:48.756Z,60
2017-11-01T09:15:29.240Z,60
2017-11-01T09:16:09.644Z,60
2017-11-01T09:16:50.088Z,60
2017-11-01T09:17:30.529Z,60
2017-11-01T09:18:10.910Z,60
2017-11-01T09:18:51.659Z,60
2017-11-01T09:19:32.073Z,60
2017-11-01T09:20:12.487Z,60
2017-11-01T09:20:54.008Z,60
2017-11-01T09:21:34.508Z,60
2017-11-01T09:22:14.983Z,60
2017-11-01T09:22:55.573Z,60
2017-11-01T09:23:35.957Z,60
2017-11-01T09:24:16.531Z,60
2017-11-01T09:24:56.956Z,60
2017-11-01T09:25:37.506Z,60
2017-11-01T09:26:17.794Z,60
2017-11-01T09:26:58.500Z,60
2017-11-01T09:27:38.915Z,60
2017-11-01T09:28:19.310Z,60
2017-11-01T09:28:59.797Z,60
2017-11-01T09:29:40.209Z,60
2017-11-01T09:30:20.792Z,60
2017-11-01T09:31:01.233Z,60
2017-11-01T09:31:41.651Z,60
2017-11-01T09:32:22.034Z,60
2017-11-01T09:33:02.581Z,60
2017-11-01T09:33:42.933Z,60
2017-11-01T09:34:23.379Z,60
2017-11-01T09:35:03.803Z,60
2017-11-01T09:35:44.229Z,60
2017-11-01T09:36:24.721Z,60
2017-11-01T09:37:05.168Z,60
2017-11-01T09:37:45.582Z,60
2017-11-01T09:38:26.168Z,60
2017-11-01T09:39:06.527Z,60
2017-11-01T09:39:46.967Z,55
2017-11-01T09:40:30.491Z,55
2017-11-01T09:41:11.213Z,55
2017-11-01T09:41:52.034Z,55
2017-11-01T09:42:32.497Z,55
2017-11-01T09:43:12.962Z,55
2017-11-01T09:43:53.766Z,55
2017-11-01T09:44:34.212Z,60
2017-11-01T09:45:14.693Z,55
2017-11-01T09:45:55.102Z,55
2017-11-01T09:48:48.875Z,60
2017-11-01T09:49:42.058Z,60
2017-11-01T09:50:36.136Z,60
2017-11-01T09:51:28.737Z,60
2017-11-01T09:53:50.017Z,55
2017-11-01T09:54:44.158Z,55
2017-11-01T09:55:36.816Z,55
2017-11-01T09:56:30.448Z,55
2017-11-01T09:57:23.672Z,55
2017-11-01T09:58:16.794Z,55
2017-11-01T09:59:09.608Z,55
2017-11-01T10:00:02.721Z,55
2017-11-01T10:00:55.077Z,55
2017-11-01T10:01:47.879Z,55
2017-11-01T10:02:42.418Z,55
2017-11-01T10:41:38.457Z,50
2017-11-01T10:42:30.958Z,55
2017-11-01T10:43:23.282Z,55
2017-11-01T10:44:16.172Z,50
2017-11-01T10:45:10.655Z,55
2017-11-01T10:46:03.764Z,50
2017-11-01T10:46:56.317Z,50
2017-11-01T10:47:50.291Z,55
2017-11-01T10:48:42.719Z,55
2017-11-01T10:49:35.150Z,55
2017-11-01T10:50:28.291Z,55
2017-11-01T10:51:22.202Z,55
2017-11-01T10:52:15.708Z,55
2017-11-01T10:53:09.803Z,55
2017-11-01T10:54:06.185Z,55
2017-11-01T10:55:04.322Z,60
2017-11-01T10:55:56.706Z,60
2017-11-01T10:56:49.806Z,60
2017-11-01T10:57:42.594Z,55
2017-11-01T10:58:35.359Z,60
2017-11-01T10:59:29.134Z,55
2017-11-01T11:00:22.460Z,55
2017-11-01T11:01:15.973Z,55
2017-11-01T11:02:08.659Z,55
2017-11-01T11:03:02.922Z,55
2017-11-01T11:03:55.939Z,55
2017-11-01T11:04:48.839Z,55
2017-11-01T11:05:42.489Z,55
2017-11-01T11:06:36.107Z,55
2017-11-01T11:07:38.138Z,55
2017-11-01T11:08:31.576Z,55
2017-11-01T11:09:25.743Z,55
2017-11-01T11:10:19.536Z,55
2017-11-01T11:11:13.267Z,55
2017-11-01T11:12:09.556Z,55
2017-11-01T11:13:02.650Z,55
2017-11-01T11:14:00.109Z,55
2017-11-01T11:14:54.140Z,55
2017-11-01T11:15:51.661Z,50
2017-11-01T11:16:52.556Z,50
2017-11-01T11:17:48.564Z,50
2017-11-01T11:18:41.511Z,50
2017-11-01T11:19:33.551Z,50
2017-11-01T11:20:19.065Z,45
2017-11-01T11:20:59.440Z,40
2017-11-01T11:21:39.822Z,40
2017-11-01T11:22:20.243Z,40
2017-11-01T11:23:00.830Z,35
2017-11-01T11:23:41.377Z,40
2017-11-01T11:24:21.865Z,45
2017-11-01T11:25:02.231Z,45
2017-11-01T11:25:42.732Z,50
2017-11-01T11:26:23.124Z,50
2017-11-01T11:27:03.529Z,50
2017-11-01T11:27:45.509Z,50
2017-11-01T11:28:25.748Z,50
2017-11-01T11:29:06.253Z,50
2017-11-01T11:29:46.668Z,50
2017-11-01T11:30:27.114Z,50
2017-11-01T11:31:07.554Z,50
2017-11-01T11:31:48.421Z,50
2017-11-01T11:32:28.882Z,50
2017-11-01T11:33:09.407Z,50
2017-11-01T11:33:49.770Z,50
2017-11-01T11:34:30.109Z,50
2017-11-01T11:35:10.579Z,50
2017-11-01T11:35:50.971Z,50
2017-11-01T11:36:31.377Z,50
2017-11-01T11:37:11.862Z,50
2017-11-01T11:37:52.229Z,50
2017-11-01T11:38:32.678Z,50
2017-11-01T11:39:13.271Z,50
2017-11-01T11:39:53.661Z,50
2017-11-01T11:40:34.451Z,50
2017-11-01T11:41:14.629Z,50
2017-11-01T11:41:54.961Z,50
2017-11-01T11:42:35.623Z,50
2017-11-01T11:43:16.664Z,50
2017-11-01T11:43:56.875Z,50
2017-11-01T11:44:37.460Z,50
2017-11-01T11:45:17.981Z,50
2017-11-01T11:45:58.380Z,50
2017-11-01T11:46:38.875Z,50
2017-11-01T11:47:19.216Z,50
2017-11-01T11:47:59.668Z,50
2017-11-01T11:48:40.067Z,50
2017-11-01T11:49:20.561Z,50
2017-11-01T11:50:01.204Z,50
2017-11-01T11:50:41.598Z,50
2017-11-01T11:51:22.516Z,50
2017-11-01T11:52:03.095Z,50
2017-11-01T11:52:43.579Z,50
2017-11-01T11:53:24.018Z,50
2017-11-01T11:54:04.425Z,50
2017-11-01T11:54:45.086Z,50
2017-11-01T11:55:25.411Z,50
2017-11-01T11:56:05.863Z,50
2017-11-01T11:56:46.321Z,50
2017-11-01T11:57:26.842Z,50
2017-11-01T11:58:07.186Z,50
2017-11-01T11:58:47.662Z,50
2017-11-01T11:59:28.017Z,50
2017-11-01T12:00:08.706Z,50
2017-11-01T12:00:49.505Z,50
2017-11-01T12:01:29.720Z,50
2017-11-01T12:02:10.234Z,50
2017-11-01T12:02:50.692Z,50
2017-11-01T12:03:31.019Z,50
2017-11-01T12:04:11.420Z,50
2017-11-01T12:04:51.893Z,50
2017-11-01T12:05:32.389Z,50
2017-11-01T12:06:13.013Z,50
2017-11-01T12:06:53.431Z,50
2017-11-01T12:07:33.788Z,50
2017-11-01T12:08:14.340Z,50
2017-11-01T12:08:54.628Z,50
2017-11-01T12:09:35.113Z,50
2017-11-01T12:10:15.535Z,50
2017-11-01T12:10:56.608Z,50
2017-11-01T12:11:36.972Z,50
2017-11-01T12:12:17.446Z,50
2017-11-01T12:12:57.825Z,50
2017-11-01T12:13:38.488Z,50
2017-11-01T12:14:18.872Z,50
2017-11-01T12:14:59.328Z,50
2017-11-01T12:15:39.813Z,50
2017-11-01T12:16:20.217Z,50
2017-11-01T12:17:00.805Z,50
2017-11-01T12:17:41.694Z,50
2017-11-01T12:18:22.130Z,50
2017-11-01T12:19:02.489Z,50
2017-11-01T12:19:43.135Z,50
2017-11-01T12:20:23.494Z,50
2017-11-01T12:21:03.901Z,50
2017-11-01T12:21:44.494Z,50
2017-11-01T12:22:24.795Z,45
2017-11-01T12:23:05.153Z,45
2017-11-01T12:23:45.535Z,45
2017-11-01T12:24:26.071Z,45
2017-11-01T12:25:06.607Z,45
2017-11-01T12:25:47.158Z,45
2017-11-01T12:26:27.568Z,45
2017-11-01T12:27:08.024Z,45